sensor_id;sensor_type;location;lat;lon;timestamp;temperature;humidity
57857;DHT22;43683;48.650;9.290;2023-03-14T00:02:02;9.00;72.60
57857;DHT22;43683;48.650;9.290;2023-03-14T00:04:27;9.10;72.60
57857;DHT22;43683;48.650;9.290;2023-03-14T00:06:53;9.10;72.70
57857;DHT22;43683;48.650;9.290;2023-03-14T00:09:18;9.10;72.70
57857;DHT22;43683;48.650;9.290;2023-03-14T00:11:44;9.10;72.70
57857;DHT22;43683;48.650;9.290;2023-03-14T00:14:10;9.10;72.70
57857;DHT22;43683;48.650;9.290;2023-03-14T00:16:35;9.10;72.80
57857;DHT22;43683;48.650;9.290;2023-03-14T00:19:01;9.10;73.00
57857;DHT22;43683;48.650;9.290;2023-03-14T00:21:26;9.10;73.10
57857;DHT22;43683;48.650;9.290;2023-03-14T00:23:52;9.10;73.20
57857;DHT22;43683;48.650;9.290;2023-03-14T00:26:19;9.00;73.30
57857;DHT22;43683;48.650;9.290;2023-03-14T00:28:46;9.00;73.40
57857;DHT22;43683;48.650;9.290;2023-03-14T00:31:14;9.00;73.50
57857;DHT22;43683;48.650;9.290;2023-03-14T00:33:41;9.00;73.70
57857;DHT22;43683;48.650;9.290;2023-03-14T00:36:09;9.00;73.70
57857;DHT22;43683;48.650;9.290;2023-03-14T00:38:36;9.00;73.70
57857;DHT22;43683;48.650;9.290;2023-03-14T00:41:06;9.00;73.60
57857;DHT22;43683;48.650;9.290;2023-03-14T00:43:32;9.00;73.60
57857;DHT22;43683;48.650;9.290;2023-03-14T00:45:58;9.00;74.30
57857;DHT22;43683;48.650;9.290;2023-03-14T00:48:23;9.10;73.70
57857;DHT22;43683;48.650;9.290;2023-03-14T00:50:49;9.10;73.60
57857;DHT22;43683;48.650;9.290;2023-03-14T00:53:15;9.10;73.70
57857;DHT22;43683;48.650;9.290;2023-03-14T00:55:41;9.10;73.70
57857;DHT22;43683;48.650;9.290;2023-03-14T00:58:08;9.10;73.80
57857;DHT22;43683;48.650;9.290;2023-03-14T01:00:34;9.10;73.80
57857;DHT22;43683;48.650;9.290;2023-03-14T01:03:00;9.10;73.80
57857;DHT22;43683;48.650;9.290;2023-03-14T01:05:26;9.20;74.50
57857;DHT22;43683;48.650;9.290;2023-03-14T01:07:52;9.20;73.70
57857;DHT22;43683;48.650;9.290;2023-03-14T01:10:17;9.20;73.60
57857;DHT22;43683;48.650;9.290;2023-03-14T01:12:43;9.20;73.60
57857;DHT22;43683;48.650;9.290;2023-03-14T01:15:09;9.20;73.60
57857;DHT22;43683;48.650;9.290;2023-03-14T01:17:35;9.20;73.60
57857;DHT22;43683;48.650;9.290;2023-03-14T01:20:03;9.10;73.70
57857;DHT22;43683;48.650;9.290;2023-03-14T01:22:30;9.10;73.90
57857;DHT22;43683;48.650;9.290;2023-03-14T01:24:55;9.00;74.00
57857;DHT22;43683;48.650;9.290;2023-03-14T01:27:21;9.00;74.00
57857;DHT22;43683;48.650;9.290;2023-03-14T01:29:46;9.00;73.90
57857;DHT22;43683;48.650;9.290;2023-03-14T01:32:12;9.00;74.00
57857;DHT22;43683;48.650;9.290;2023-03-14T01:34:38;9.00;74.00
57857;DHT22;43683;48.650;9.290;2023-03-14T01:37:03;9.00;74.00
57857;DHT22;43683;48.650;9.290;2023-03-14T01:39:29;9.00;74.00
57857;DHT22;43683;48.650;9.290;2023-03-14T01:41:55;8.90;74.10
57857;DHT22;43683;48.650;9.290;2023-03-14T01:44:20;8.90;74.30
57857;DHT22;43683;48.650;9.290;2023-03-14T01:46:46;8.90;74.30
57857;DHT22;43683;48.650;9.290;2023-03-14T01:51:54;9.00;73.90
57857;DHT22;43683;48.650;9.290;2023-03-14T01:54:37;9.10;73.70
57857;DHT22;43683;48.650;9.290;2023-03-14T01:57:14;9.10;73.50
57857;DHT22;43683;48.650;9.290;2023-03-14T01:59:45;9.10;73.30
57857;DHT22;43683;48.650;9.290;2023-03-14T02:02:12;9.10;73.40
57857;DHT22;43683;48.650;9.290;2023-03-14T02:04:39;9.10;73.50
57857;DHT22;43683;48.650;9.290;2023-03-14T02:07:16;9.00;73.60
57857;DHT22;43683;48.650;9.290;2023-03-14T02:09:43;9.00;73.70
57857;DHT22;43683;48.650;9.290;2023-03-14T02:12:10;9.00;73.60
57857;DHT22;43683;48.650;9.290;2023-03-14T02:14:37;9.00;73.60
57857;DHT22;43683;48.650;9.290;2023-03-14T02:17:05;9.00;73.60
57857;DHT22;43683;48.650;9.290;2023-03-14T02:19:39;9.10;73.60
57857;DHT22;43683;48.650;9.290;2023-03-14T02:22:09;9.00;73.60
57857;DHT22;43683;48.650;9.290;2023-03-14T02:27:23;8.90;74.00
57857;DHT22;43683;48.650;9.290;2023-03-14T02:29:54;8.80;74.30
57857;DHT22;43683;48.650;9.290;2023-03-14T02:32:22;8.80;74.50
57857;DHT22;43683;48.650;9.290;2023-03-14T02:34:52;8.80;74.40
57857;DHT22;43683;48.650;9.290;2023-03-14T02:37:21;8.80;74.30
57857;DHT22;43683;48.650;9.290;2023-03-14T02:39:48;8.90;74.10
57857;DHT22;43683;48.650;9.290;2023-03-14T02:42:17;8.90;74.00
57857;DHT22;43683;48.650;9.290;2023-03-14T02:47:40;9.00;73.80
57857;DHT22;43683;48.650;9.290;2023-03-14T02:50:10;9.10;73.60
57857;DHT22;43683;48.650;9.290;2023-03-14T02:52:37;9.10;73.60
57857;DHT22;43683;48.650;9.290;2023-03-14T02:55:03;9.00;73.60
57857;DHT22;43683;48.650;9.290;2023-03-14T02:57:29;9.10;73.60
57857;DHT22;43683;48.650;9.290;2023-03-14T02:59:58;9.10;73.70
57857;DHT22;43683;48.650;9.290;2023-03-14T03:02:25;9.00;74.00
57857;DHT22;43683;48.650;9.290;2023-03-14T03:04:50;8.90;74.20
57857;DHT22;43683;48.650;9.290;2023-03-14T03:07:16;8.80;74.50
57857;DHT22;43683;48.650;9.290;2023-03-14T03:09:41;8.70;74.50
57857;DHT22;43683;48.650;9.290;2023-03-14T03:12:07;8.70;74.80
57857;DHT22;43683;48.650;9.290;2023-03-14T03:14:33;8.60;74.80
57857;DHT22;43683;48.650;9.290;2023-03-14T03:16:58;8.70;74.80
57857;DHT22;43683;48.650;9.290;2023-03-14T03:19:24;8.70;74.80
57857;DHT22;43683;48.650;9.290;2023-03-14T03:21:49;8.60;74.80
57857;DHT22;43683;48.650;9.290;2023-03-14T03:24:15;8.60;74.90
57857;DHT22;43683;48.650;9.290;2023-03-14T03:26:40;8.60;74.90
57857;DHT22;43683;48.650;9.290;2023-03-14T03:29:06;8.60;75.00
57857;DHT22;43683;48.650;9.290;2023-03-14T03:31:31;8.50;75.00
57857;DHT22;43683;48.650;9.290;2023-03-14T03:33:57;8.50;75.10
57857;DHT22;43683;48.650;9.290;2023-03-14T03:36:24;8.50;75.20
57857;DHT22;43683;48.650;9.290;2023-03-14T03:38:50;8.40;75.20
57857;DHT22;43683;48.650;9.290;2023-03-14T03:41:16;8.40;75.30
57857;DHT22;43683;48.650;9.290;2023-03-14T03:43:41;8.40;75.40
57857;DHT22;43683;48.650;9.290;2023-03-14T03:46:07;8.40;75.40
57857;DHT22;43683;48.650;9.290;2023-03-14T03:48:34;8.30;75.40
57857;DHT22;43683;48.650;9.290;2023-03-14T03:50:59;8.40;75.40
57857;DHT22;43683;48.650;9.290;2023-03-14T03:53:25;8.30;75.40
57857;DHT22;43683;48.650;9.290;2023-03-14T03:55:51;8.30;75.50
57857;DHT22;43683;48.650;9.290;2023-03-14T03:58:17;8.30;75.50
57857;DHT22;43683;48.650;9.290;2023-03-14T04:00:42;8.30;75.60
57857;DHT22;43683;48.650;9.290;2023-03-14T04:03:08;8.30;75.60
57857;DHT22;43683;48.650;9.290;2023-03-14T04:05:33;8.20;75.60
57857;DHT22;43683;48.650;9.290;2023-03-14T04:08:00;8.20;75.70
57857;DHT22;43683;48.650;9.290;2023-03-14T04:10:25;8.20;75.80
57857;DHT22;43683;48.650;9.290;2023-03-14T04:12:51;8.20;75.80
57857;DHT22;43683;48.650;9.290;2023-03-14T04:15:17;8.20;75.80
57857;DHT22;43683;48.650;9.290;2023-03-14T04:17:43;8.20;75.70
57857;DHT22;43683;48.650;9.290;2023-03-14T04:20:09;8.30;75.70
57857;DHT22;43683;48.650;9.290;2023-03-14T04:22:37;8.30;75.50
57857;DHT22;43683;48.650;9.290;2023-03-14T04:25:03;8.30;75.50
57857;DHT22;43683;48.650;9.290;2023-03-14T04:27:29;8.30;75.40
57857;DHT22;43683;48.650;9.290;2023-03-14T04:29:54;8.30;75.40
57857;DHT22;43683;48.650;9.290;2023-03-14T04:32:20;8.30;75.40
57857;DHT22;43683;48.650;9.290;2023-03-14T04:34:46;8.40;75.30
57857;DHT22;43683;48.650;9.290;2023-03-14T04:37:11;8.30;75.30
57857;DHT22;43683;48.650;9.290;2023-03-14T04:39:37;8.30;75.50
57857;DHT22;43683;48.650;9.290;2023-03-14T04:42:03;8.30;75.50
57857;DHT22;43683;48.650;9.290;2023-03-14T04:44:28;8.30;75.50
57857;DHT22;43683;48.650;9.290;2023-03-14T04:46:54;8.30;76.20
57857;DHT22;43683;48.650;9.290;2023-03-14T04:49:19;8.30;75.50
57857;DHT22;43683;48.650;9.290;2023-03-14T04:51:45;8.30;75.50
57857;DHT22;43683;48.650;9.290;2023-03-14T04:54:10;8.30;75.60
57857;DHT22;43683;48.650;9.290;2023-03-14T04:56:36;8.30;75.60
57857;DHT22;43683;48.650;9.290;2023-03-14T04:59:02;8.30;75.60
57857;DHT22;43683;48.650;9.290;2023-03-14T05:01:28;8.30;75.60
57857;DHT22;43683;48.650;9.290;2023-03-14T05:03:53;8.30;75.70
57857;DHT22;43683;48.650;9.290;2023-03-14T05:06:19;8.30;75.80
57857;DHT22;43683;48.650;9.290;2023-03-14T05:08:44;8.20;75.90
57857;DHT22;43683;48.650;9.290;2023-03-14T05:11:10;8.20;75.90
57857;DHT22;43683;48.650;9.290;2023-03-14T05:13:37;8.20;75.80
57857;DHT22;43683;48.650;9.290;2023-03-14T05:16:05;8.30;75.70
57857;DHT22;43683;48.650;9.290;2023-03-14T05:18:31;8.30;75.60
57857;DHT22;43683;48.650;9.290;2023-03-14T05:20:56;8.30;75.60
57857;DHT22;43683;48.650;9.290;2023-03-14T05:23:22;8.30;75.70
57857;DHT22;43683;48.650;9.290;2023-03-14T05:25:47;8.30;75.70
57857;DHT22;43683;48.650;9.290;2023-03-14T05:28:13;8.30;75.90
57857;DHT22;43683;48.650;9.290;2023-03-14T05:30:38;8.20;76.00
57857;DHT22;43683;48.650;9.290;2023-03-14T05:33:04;8.10;76.10
57857;DHT22;43683;48.650;9.290;2023-03-14T05:35:29;8.10;76.20
57857;DHT22;43683;48.650;9.290;2023-03-14T05:37:55;8.10;76.20
57857;DHT22;43683;48.650;9.290;2023-03-14T05:40:20;8.10;76.20
57857;DHT22;43683;48.650;9.290;2023-03-14T05:42:46;8.00;76.20
57857;DHT22;43683;48.650;9.290;2023-03-14T05:45:11;8.00;76.30
57857;DHT22;43683;48.650;9.290;2023-03-14T05:47:36;8.10;76.20
57857;DHT22;43683;48.650;9.290;2023-03-14T05:50:02;8.20;76.00
57857;DHT22;43683;48.650;9.290;2023-03-14T05:52:28;8.20;75.80
57857;DHT22;43683;48.650;9.290;2023-03-14T05:54:53;8.20;75.80
57857;DHT22;43683;48.650;9.290;2023-03-14T05:57:19;8.20;75.80
57857;DHT22;43683;48.650;9.290;2023-03-14T05:59:44;8.20;75.70
57857;DHT22;43683;48.650;9.290;2023-03-14T06:02:10;8.30;75.70
57857;DHT22;43683;48.650;9.290;2023-03-14T06:04:35;8.30;76.30
57857;DHT22;43683;48.650;9.290;2023-03-14T06:07:01;8.30;75.70
57857;DHT22;43683;48.650;9.290;2023-03-14T06:09:26;8.20;75.90
57857;DHT22;43683;48.650;9.290;2023-03-14T06:11:52;8.10;76.00
57857;DHT22;43683;48.650;9.290;2023-03-14T06:14:18;8.10;76.20
57857;DHT22;43683;48.650;9.290;2023-03-14T06:16:43;8.10;76.20
57857;DHT22;43683;48.650;9.290;2023-03-14T06:19:09;8.10;76.20
57857;DHT22;43683;48.650;9.290;2023-03-14T06:21:35;8.10;76.10
57857;DHT22;43683;48.650;9.290;2023-03-14T06:24:01;8.10;76.10
57857;DHT22;43683;48.650;9.290;2023-03-14T06:26:26;8.10;76.90
57857;DHT22;43683;48.650;9.290;2023-03-14T06:28:52;8.20;76.20
57857;DHT22;43683;48.650;9.290;2023-03-14T06:31:19;8.20;76.20
57857;DHT22;43683;48.650;9.290;2023-03-14T06:33:44;8.10;76.10
57857;DHT22;43683;48.650;9.290;2023-03-14T06:36:10;8.10;76.30
57857;DHT22;43683;48.650;9.290;2023-03-14T06:38:35;8.00;76.50
57857;DHT22;43683;48.650;9.290;2023-03-14T06:41:07;8.00;76.40
57857;DHT22;43683;48.650;9.290;2023-03-14T06:43:33;8.00;76.60
57857;DHT22;43683;48.650;9.290;2023-03-14T06:45:58;7.90;76.80
57857;DHT22;43683;48.650;9.290;2023-03-14T06:48:24;7.70;77.00
57857;DHT22;43683;48.650;9.290;2023-03-14T06:50:50;7.70;77.00
57857;DHT22;43683;48.650;9.290;2023-03-14T06:53:15;7.90;76.80
57857;DHT22;43683;48.650;9.290;2023-03-14T06:55:41;8.20;76.20
57857;DHT22;43683;48.650;9.290;2023-03-14T06:58:06;8.50;75.50
57857;DHT22;43683;48.650;9.290;2023-03-14T07:00:34;8.70;74.90
57857;DHT22;43683;48.650;9.290;2023-03-14T07:02:59;8.80;74.60
57857;DHT22;43683;48.650;9.290;2023-03-14T07:05:28;8.80;75.20
57857;DHT22;43683;48.650;9.290;2023-03-14T07:07:53;9.00;75.70
57857;DHT22;43683;48.650;9.290;2023-03-14T07:10:19;9.30;75.60
57857;DHT22;43683;48.650;9.290;2023-03-14T07:12:44;9.50;75.60
57857;DHT22;43683;48.650;9.290;2023-03-14T07:15:10;9.70;75.60
57857;DHT22;43683;48.650;9.290;2023-03-14T07:17:36;9.80;75.70
57857;DHT22;43683;48.650;9.290;2023-03-14T07:20:02;10.00;76.30
57857;DHT22;43683;48.650;9.290;2023-03-14T07:22:29;10.30;76.50
57857;DHT22;43683;48.650;9.290;2023-03-14T07:24:55;10.40;76.40
57857;DHT22;43683;48.650;9.290;2023-03-14T07:27:20;10.20;76.60
57857;DHT22;43683;48.650;9.290;2023-03-14T07:29:46;10.20;77.70
57857;DHT22;43683;48.650;9.290;2023-03-14T07:32:11;10.10;77.00
57857;DHT22;43683;48.650;9.290;2023-03-14T07:34:43;10.00;77.30
57857;DHT22;43683;48.650;9.290;2023-03-14T07:37:09;10.00;78.40
57857;DHT22;43683;48.650;9.290;2023-03-14T07:39:34;10.20;79.80
57857;DHT22;43683;48.650;9.290;2023-03-14T07:42:00;10.50;80.20
57857;DHT22;43683;48.650;9.290;2023-03-14T07:44:26;11.10;79.50
57857;DHT22;43683;48.650;9.290;2023-03-14T07:46:52;11.70;78.60
57857;DHT22;43683;48.650;9.290;2023-03-14T07:49:17;12.10;77.60
57857;DHT22;43683;48.650;9.290;2023-03-14T07:51:43;12.10;76.90
57857;DHT22;43683;48.650;9.290;2023-03-14T07:54:11;12.00;76.80
57857;DHT22;43683;48.650;9.290;2023-03-14T07:56:37;11.80;76.80
57857;DHT22;43683;48.650;9.290;2023-03-14T07:59:02;11.70;76.80
57857;DHT22;43683;48.650;9.290;2023-03-14T08:01:28;11.60;76.80
57857;DHT22;43683;48.650;9.290;2023-03-14T08:03:54;11.60;76.60
57857;DHT22;43683;48.650;9.290;2023-03-14T08:06:19;11.70;76.20
57857;DHT22;43683;48.650;9.290;2023-03-14T08:08:45;11.80;75.80
57857;DHT22;43683;48.650;9.290;2023-03-14T08:11:10;11.90;75.50
57857;DHT22;43683;48.650;9.290;2023-03-14T08:13:37;12.00;75.20
57857;DHT22;43683;48.650;9.290;2023-03-14T08:16:03;12.10;74.80
57857;DHT22;43683;48.650;9.290;2023-03-14T08:18:29;12.10;74.50
57857;DHT22;43683;48.650;9.290;2023-03-14T08:20:55;12.10;74.30
57857;DHT22;43683;48.650;9.290;2023-03-14T08:23:20;12.10;74.40
57857;DHT22;43683;48.650;9.290;2023-03-14T08:25:49;12.00;74.30
57857;DHT22;43683;48.650;9.290;2023-03-14T08:28:15;12.10;74.20
57857;DHT22;43683;48.650;9.290;2023-03-14T08:30:41;12.30;73.80
57857;DHT22;43683;48.650;9.290;2023-03-14T08:33:07;12.50;73.30
57857;DHT22;43683;48.650;9.290;2023-03-14T08:35:32;12.50;72.90
57857;DHT22;43683;48.650;9.290;2023-03-14T08:37:58;12.50;73.00
57857;DHT22;43683;48.650;9.290;2023-03-14T08:40:24;12.60;72.90
57857;DHT22;43683;48.650;9.290;2023-03-14T08:42:50;12.60;72.80
57857;DHT22;43683;48.650;9.290;2023-03-14T08:45:16;12.60;72.80
57857;DHT22;43683;48.650;9.290;2023-03-14T08:47:42;12.80;72.70
57857;DHT22;43683;48.650;9.290;2023-03-14T08:50:09;13.00;72.50
57857;DHT22;43683;48.650;9.290;2023-03-14T08:52:34;13.20;72.00
57857;DHT22;43683;48.650;9.290;2023-03-14T08:55:00;13.60;72.10
57857;DHT22;43683;48.650;9.290;2023-03-14T08:57:26;14.10;71.80
57857;DHT22;43683;48.650;9.290;2023-03-14T08:59:55;14.60;70.70
57857;DHT22;43683;48.650;9.290;2023-03-14T09:02:22;14.90;69.50
57857;DHT22;43683;48.650;9.290;2023-03-14T09:04:47;14.70;68.90
57857;DHT22;43683;48.650;9.290;2023-03-14T09:07:14;14.70;68.90
57857;DHT22;43683;48.650;9.290;2023-03-14T09:09:40;14.70;68.60
57857;DHT22;43683;48.650;9.290;2023-03-14T09:12:05;14.70;68.30
57857;DHT22;43683;48.650;9.290;2023-03-14T09:14:31;14.50;68.10
57857;DHT22;43683;48.650;9.290;2023-03-14T09:16:57;14.40;67.80
57857;DHT22;43683;48.650;9.290;2023-03-14T09:19:23;14.20;67.50
57857;DHT22;43683;48.650;9.290;2023-03-14T09:21:49;13.80;67.80
57857;DHT22;43683;48.650;9.290;2023-03-14T09:24:16;13.30;68.20
57857;DHT22;43683;48.650;9.290;2023-03-14T09:26:41;13.00;68.00
57857;DHT22;43683;48.650;9.290;2023-03-14T09:29:07;13.10;67.80
57857;DHT22;43683;48.650;9.290;2023-03-14T09:31:33;13.60;67.70
57857;DHT22;43683;48.650;9.290;2023-03-14T09:33:58;13.90;67.00
57857;DHT22;43683;48.650;9.290;2023-03-14T09:36:24;14.20;66.40
57857;DHT22;43683;48.650;9.290;2023-03-14T09:38:49;14.30;66.40
57857;DHT22;43683;48.650;9.290;2023-03-14T09:41:18;14.10;65.70
57857;DHT22;43683;48.650;9.290;2023-03-14T09:43:47;14.10;65.80
57857;DHT22;43683;48.650;9.290;2023-03-14T09:46:16;14.00;65.60
57857;DHT22;43683;48.650;9.290;2023-03-14T09:48:43;14.10;65.70
57857;DHT22;43683;48.650;9.290;2023-03-14T09:51:15;14.00;65.60
57857;DHT22;43683;48.650;9.290;2023-03-14T09:53:43;13.60;66.10
57857;DHT22;43683;48.650;9.290;2023-03-14T09:56:28;13.10;66.90
57857;DHT22;43683;48.650;9.290;2023-03-14T09:58:57;12.70;68.00
57857;DHT22;43683;48.650;9.290;2023-03-14T10:01:29;12.30;68.60
57857;DHT22;43683;48.650;9.290;2023-03-14T10:03:58;12.00;69.10
57857;DHT22;43683;48.650;9.290;2023-03-14T10:06:29;11.90;69.50
57857;DHT22;43683;48.650;9.290;2023-03-14T10:08:55;11.80;69.80
57857;DHT22;43683;48.650;9.290;2023-03-14T10:11:22;11.70;69.70
57857;DHT22;43683;48.650;9.290;2023-03-14T10:14:04;11.80;69.60
57857;DHT22;43683;48.650;9.290;2023-03-14T10:16:39;11.80;69.50
57857;DHT22;43683;48.650;9.290;2023-03-14T10:19:08;11.90;69.20
57857;DHT22;43683;48.650;9.290;2023-03-14T10:21:39;12.10;69.00
57857;DHT22;43683;48.650;9.290;2023-03-14T10:24:29;12.30;68.70
57857;DHT22;43683;48.650;9.290;2023-03-14T10:26:58;12.60;68.30
57857;DHT22;43683;48.650;9.290;2023-03-14T10:29:26;12.70;68.00
57857;DHT22;43683;48.650;9.290;2023-03-14T10:31:59;12.80;67.90
57857;DHT22;43683;48.650;9.290;2023-03-14T10:34:37;13.00;67.60
57857;DHT22;43683;48.650;9.290;2023-03-14T10:37:17;13.20;67.30
57857;DHT22;43683;48.650;9.290;2023-03-14T10:39:47;13.30;66.90
57857;DHT22;43683;48.650;9.290;2023-03-14T10:42:30;13.50;66.70
57857;DHT22;43683;48.650;9.290;2023-03-14T10:45:10;13.60;66.60
57857;DHT22;43683;48.650;9.290;2023-03-14T10:47:51;13.90;66.00
57857;DHT22;43683;48.650;9.290;2023-03-14T10:50:26;14.10;66.00
57857;DHT22;43683;48.650;9.290;2023-03-14T10:52:53;14.10;65.70
57857;DHT22;43683;48.650;9.290;2023-03-14T10:55:19;13.90;66.10
57857;DHT22;43683;48.650;9.290;2023-03-14T10:57:44;13.70;66.10
57857;DHT22;43683;48.650;9.290;2023-03-14T11:00:21;13.60;66.30
57857;DHT22;43683;48.650;9.290;2023-03-14T11:02:58;13.60;66.10
57857;DHT22;43683;48.650;9.290;2023-03-14T11:08:15;13.20;66.50
57857;DHT22;43683;48.650;9.290;2023-03-14T11:10:46;13.20;66.40
57857;DHT22;43683;48.650;9.290;2023-03-14T11:21:16;13.50;65.30
57857;DHT22;43683;48.650;9.290;2023-03-14T11:24:04;13.50;65.00
57857;DHT22;43683;48.650;9.290;2023-03-14T11:26:37;13.30;65.30
57857;DHT22;43683;48.650;9.290;2023-03-14T11:29:35;12.90;65.90
57857;DHT22;43683;48.650;9.290;2023-03-14T11:32:12;12.50;66.70
57857;DHT22;43683;48.650;9.290;2023-03-14T11:34:54;12.50;66.80
57857;DHT22;43683;48.650;9.290;2023-03-14T11:39:59;12.20;67.80
57857;DHT22;43683;48.650;9.290;2023-03-14T11:42:26;12.20;67.90
57857;DHT22;43683;48.650;9.290;2023-03-14T11:44:53;12.40;67.30
57857;DHT22;43683;48.650;9.290;2023-03-14T11:47:20;12.30;67.20
57857;DHT22;43683;48.650;9.290;2023-03-14T11:50:04;12.20;67.30
57857;DHT22;43683;48.650;9.290;2023-03-14T11:52:37;11.90;67.90
57857;DHT22;43683;48.650;9.290;2023-03-14T11:55:11;11.70;68.80
57857;DHT22;43683;48.650;9.290;2023-03-14T11:57:39;11.60;69.00
57857;DHT22;43683;48.650;9.290;2023-03-14T12:00:18;11.70;68.90
57857;DHT22;43683;48.650;9.290;2023-03-14T12:02:56;11.90;68.70
57857;DHT22;43683;48.650;9.290;2023-03-14T12:05:43;11.90;68.50
57857;DHT22;43683;48.650;9.290;2023-03-14T12:08:32;11.90;68.50
57857;DHT22;43683;48.650;9.290;2023-03-14T12:11:09;11.90;68.60
57857;DHT22;43683;48.650;9.290;2023-03-14T12:13:38;12.00;68.60
57857;DHT22;43683;48.650;9.290;2023-03-14T12:16:08;12.10;68.40
57857;DHT22;43683;48.650;9.290;2023-03-14T12:18:45;11.90;68.90
57857;DHT22;43683;48.650;9.290;2023-03-14T12:21:11;11.80;69.10
57857;DHT22;43683;48.650;9.290;2023-03-14T12:23:42;11.60;69.70
57857;DHT22;43683;48.650;9.290;2023-03-14T12:26:13;11.30;70.60
57857;DHT22;43683;48.650;9.290;2023-03-14T12:28:43;11.10;71.10
57857;DHT22;43683;48.650;9.290;2023-03-14T12:31:46;11.00;71.40
57857;DHT22;43683;48.650;9.290;2023-03-14T12:39:33;11.50;71.10
57857;DHT22;43683;48.650;9.290;2023-03-14T12:45:29;11.60;70.40
57857;DHT22;43683;48.650;9.290;2023-03-14T12:48:13;11.60;69.80
57857;DHT22;43683;48.650;9.290;2023-03-14T12:50:55;11.60;69.70
57857;DHT22;43683;48.650;9.290;2023-03-14T12:59:05;11.90;68.40
57857;DHT22;43683;48.650;9.290;2023-03-14T13:01:46;12.10;66.80
57857;DHT22;43683;48.650;9.290;2023-03-14T13:04:12;12.50;63.00
57857;DHT22;43683;48.650;9.290;2023-03-14T13:06:56;12.50;61.60
57857;DHT22;43683;48.650;9.290;2023-03-14T13:12:13;12.40;60.30
57857;DHT22;43683;48.650;9.290;2023-03-14T13:14:45;12.60;59.80
57857;DHT22;43683;48.650;9.290;2023-03-14T13:17:13;13.00;59.00
57857;DHT22;43683;48.650;9.290;2023-03-14T13:19:39;13.10;56.80
57857;DHT22;43683;48.650;9.290;2023-03-14T13:22:21;13.10;56.60
57857;DHT22;43683;48.650;9.290;2023-03-14T13:24:47;13.20;56.00
57857;DHT22;43683;48.650;9.290;2023-03-14T13:27:20;13.30;55.20
57857;DHT22;43683;48.650;9.290;2023-03-14T13:29:49;13.40;54.90
57857;DHT22;43683;48.650;9.290;2023-03-14T13:32:25;13.20;52.70
57857;DHT22;43683;48.650;9.290;2023-03-14T13:34:51;12.60;53.70
57857;DHT22;43683;48.650;9.290;2023-03-14T13:37:22;11.90;54.20
57857;DHT22;43683;48.650;9.290;2023-03-14T13:39:55;11.30;55.00
57857;DHT22;43683;48.650;9.290;2023-03-14T13:42:26;10.80;55.50
57857;DHT22;43683;48.650;9.290;2023-03-14T13:44:54;10.60;55.90
57857;DHT22;43683;48.650;9.290;2023-03-14T13:47:21;10.60;55.50
57857;DHT22;43683;48.650;9.290;2023-03-14T13:49:49;10.60;55.20
57857;DHT22;43683;48.650;9.290;2023-03-14T13:52:40;10.60;55.20
57857;DHT22;43683;48.650;9.290;2023-03-14T13:55:14;10.60;55.50
57857;DHT22;43683;48.650;9.290;2023-03-14T13:57:46;10.50;54.90
57857;DHT22;43683;48.650;9.290;2023-03-14T14:00:20;10.40;55.30
57857;DHT22;43683;48.650;9.290;2023-03-14T14:02:47;10.40;55.70
57857;DHT22;43683;48.650;9.290;2023-03-14T14:05:13;10.60;55.80
57857;DHT22;43683;48.650;9.290;2023-03-14T14:07:40;10.50;55.20
57857;DHT22;43683;48.650;9.290;2023-03-14T14:10:11;10.40;55.50
57857;DHT22;43683;48.650;9.290;2023-03-14T14:15:31;10.10;56.20
57857;DHT22;43683;48.650;9.290;2023-03-14T14:18:02;10.10;56.30
57857;DHT22;43683;48.650;9.290;2023-03-14T14:20:32;10.10;56.40
57857;DHT22;43683;48.650;9.290;2023-03-14T14:23:05;10.10;55.90
57857;DHT22;43683;48.650;9.290;2023-03-14T14:25:32;10.00;55.30
57857;DHT22;43683;48.650;9.290;2023-03-14T14:27:58;9.90;55.10
57857;DHT22;43683;48.650;9.290;2023-03-14T14:30:42;9.80;54.30
57857;DHT22;43683;48.650;9.290;2023-03-14T14:33:25;9.80;54.50
57857;DHT22;43683;48.650;9.290;2023-03-14T14:35:59;9.80;53.70
57857;DHT22;43683;48.650;9.290;2023-03-14T14:38:26;9.90;53.70
57857;DHT22;43683;48.650;9.290;2023-03-14T14:40:58;10.10;53.40
57857;DHT22;43683;48.650;9.290;2023-03-14T14:43:27;10.20;52.50
57857;DHT22;43683;48.650;9.290;2023-03-14T14:45:54;10.40;52.80
57857;DHT22;43683;48.650;9.290;2023-03-14T14:48:23;10.50;52.70
57857;DHT22;43683;48.650;9.290;2023-03-14T14:51:04;10.40;52.60
57857;DHT22;43683;48.650;9.290;2023-03-14T14:53:40;10.00;52.60
57857;DHT22;43683;48.650;9.290;2023-03-14T14:56:17;9.70;53.40
57857;DHT22;43683;48.650;9.290;2023-03-14T14:58:46;9.60;53.80
57857;DHT22;43683;48.650;9.290;2023-03-14T15:01:21;9.60;54.00
57857;DHT22;43683;48.650;9.290;2023-03-14T15:03:53;9.50;53.70
57857;DHT22;43683;48.650;9.290;2023-03-14T15:06:19;9.40;53.40
57857;DHT22;43683;48.650;9.290;2023-03-14T15:08:47;9.40;53.40
57857;DHT22;43683;48.650;9.290;2023-03-14T15:11:16;9.40;53.40
57857;DHT22;43683;48.650;9.290;2023-03-14T15:13:42;9.40;53.20
57857;DHT22;43683;48.650;9.290;2023-03-14T15:16:12;9.50;53.10
57857;DHT22;43683;48.650;9.290;2023-03-14T15:18:39;9.70;52.70
57857;DHT22;43683;48.650;9.290;2023-03-14T15:21:05;9.90;52.70
57857;DHT22;43683;48.650;9.290;2023-03-14T15:23:31;10.30;52.50
57857;DHT22;43683;48.650;9.290;2023-03-14T15:25:57;11.10;52.40
57857;DHT22;43683;48.650;9.290;2023-03-14T15:28:28;11.60;51.60
57857;DHT22;43683;48.650;9.290;2023-03-14T15:30:56;11.50;50.50
57857;DHT22;43683;48.650;9.290;2023-03-14T15:33:22;12.00;51.00
57857;DHT22;43683;48.650;9.290;2023-03-14T15:35:48;12.30;50.60
57857;DHT22;43683;48.650;9.290;2023-03-14T15:38:17;12.00;50.90
57857;DHT22;43683;48.650;9.290;2023-03-14T15:40:46;11.40;50.90
57857;DHT22;43683;48.650;9.290;2023-03-14T15:43:12;10.70;51.90
57857;DHT22;43683;48.650;9.290;2023-03-14T15:45:38;10.20;52.80
57857;DHT22;43683;48.650;9.290;2023-03-14T15:48:04;9.80;52.80
57857;DHT22;43683;48.650;9.290;2023-03-14T15:50:29;9.50;53.40
57857;DHT22;43683;48.650;9.290;2023-03-14T15:52:55;9.40;53.90
57857;DHT22;43683;48.650;9.290;2023-03-14T15:55:21;9.30;53.90
57857;DHT22;43683;48.650;9.290;2023-03-14T15:57:47;9.20;54.20
57857;DHT22;43683;48.650;9.290;2023-03-14T16:00:16;9.10;54.50
57857;DHT22;43683;48.650;9.290;2023-03-14T16:02:43;9.00;54.60
57857;DHT22;43683;48.650;9.290;2023-03-14T16:05:11;9.00;54.90
57857;DHT22;43683;48.650;9.290;2023-03-14T16:07:37;8.90;54.80
57857;DHT22;43683;48.650;9.290;2023-03-14T16:10:03;8.90;55.70
57857;DHT22;43683;48.650;9.290;2023-03-14T16:12:30;8.80;55.00
57857;DHT22;43683;48.650;9.290;2023-03-14T16:14:55;8.80;55.10
57857;DHT22;43683;48.650;9.290;2023-03-14T16:17:21;8.80;55.10
57857;DHT22;43683;48.650;9.290;2023-03-14T16:19:46;8.80;55.10
57857;DHT22;43683;48.650;9.290;2023-03-14T16:22:12;8.80;55.20
57857;DHT22;43683;48.650;9.290;2023-03-14T16:24:38;8.80;55.40
57857;DHT22;43683;48.650;9.290;2023-03-14T16:27:03;8.80;55.80
57857;DHT22;43683;48.650;9.290;2023-03-14T16:29:30;8.90;55.50